createdAt,value
2023-03-04T00:04:10.607Z,0.00
2023-03-04T00:09:11.319Z,0.00
2023-03-04T00:14:12.031Z,0.00
2023-03-04T00:19:12.718Z,0.00
2023-03-04T00:24:13.428Z,0.00
2023-03-04T00:29:14.159Z,0.00
2023-03-04T00:34:14.948Z,0.00
2023-03-04T00:39:15.665Z,0.00
2023-03-04T00:44:16.390Z,0.00
2023-03-04T00:49:17.071Z,0.00
2023-03-04T00:54:17.768Z,0.00
2023-03-04T00:59:18.507Z,0.00
2023-03-04T01:04:19.202Z,0.00
2023-03-04T01:09:19.908Z,0.00
2023-03-04T01:14:20.649Z,0.00
2023-03-04T01:19:21.377Z,0.00
2023-03-04T01:24:22.104Z,0.00
2023-03-04T01:29:22.812Z,0.00
2023-03-04T01:34:23.553Z,0.00
2023-03-04T01:39:24.284Z,0.00
2023-03-04T01:44:24.991Z,0.00
2023-03-04T01:49:25.700Z,0.00
2023-03-04T01:54:26.410Z,0.00
2023-03-04T01:59:27.174Z,0.00
2023-03-04T02:04:27.908Z,0.00
2023-03-04T02:09:28.607Z,0.00
2023-03-04T02:14:29.329Z,0.00
2023-03-04T02:19:30.074Z,0.00
2023-03-04T02:24:30.779Z,0.00
2023-03-04T02:29:31.508Z,0.00
2023-03-04T02:34:32.223Z,0.00
2023-03-04T02:39:33.030Z,0.00
2023-03-04T02:44:33.737Z,0.00
2023-03-04T02:49:34.431Z,0.00
2023-03-04T02:54:35.162Z,0.00
2023-03-04T02:59:35.903Z,0.00
2023-03-04T03:04:36.604Z,0.00
2023-03-04T03:09:37.344Z,0.00
2023-03-04T03:14:38.092Z,0.00
2023-03-04T03:19:38.807Z,0.00
2023-03-04T03:24:39.505Z,0.00
2023-03-04T03:29:40.247Z,0.00
2023-03-04T03:34:40.966Z,0.00
2023-03-04T03:39:41.662Z,0.00
2023-03-04T03:44:42.387Z,0.00
2023-03-04T03:49:43.096Z,0.00
2023-03-04T03:54:50.831Z,0.00
2023-03-04T03:59:44.516Z,0.00
2023-03-04T04:04:45.251Z,0.00
2023-03-04T04:09:45.977Z,0.00
2023-03-04T04:14:46.718Z,0.00
2023-03-04T04:19:47.433Z,0.00
2023-03-04T04:24:48.166Z,0.00
2023-03-04T04:29:48.878Z,0.00
2023-03-04T04:34:49.652Z,0.00
2023-03-04T04:39:50.965Z,0.00
2023-03-04T04:44:51.212Z,0.00
2023-03-04T04:49:51.967Z,0.00
2023-03-04T04:54:52.666Z,0.00
2023-03-04T04:59:53.393Z,0.00
2023-03-04T05:04:54.195Z,0.00
2023-03-04T05:09:54.896Z,0.00
2023-03-04T05:14:55.657Z,0.00
2023-03-04T05:19:56.348Z,1.00
2023-03-04T05:24:57.054Z,0.00
2023-03-04T05:29:57.738Z,3.00
2023-03-04T05:34:58.418Z,1.00
2023-03-04T05:39:59.114Z,7.00
2023-03-04T05:44:59.767Z,6.00
2023-03-04T05:50:00.443Z,14.00
2023-03-04T05:55:01.112Z,13.00
2023-03-04T06:00:01.816Z,40.00
2023-03-04T06:05:02.448Z,34.00
2023-03-04T06:10:03.101Z,58.00
2023-03-04T06:15:03.794Z,100.00
2023-03-04T06:20:04.476Z,156.00
2023-03-04T06:25:05.171Z,175.00
2023-03-04T06:30:05.993Z,146.00
2023-03-04T06:35:06.711Z,243.00
2023-03-04T06:40:07.356Z,250.00
2023-03-04T06:45:08.012Z,280.00
2023-03-04T06:50:08.664Z,356.00
2023-03-04T06:55:09.350Z,504.00
2023-03-04T07:00:10.015Z,347.00
2023-03-04T07:05:10.694Z,567.00
2023-03-04T07:10:11.375Z,703.00
2023-03-04T07:15:12.062Z,524.00
2023-03-04T07:20:12.852Z,631.00
2023-03-04T07:25:13.509Z,184.00
2023-03-04T07:30:14.188Z,657.00
2023-03-04T07:35:14.872Z,971.00
2023-03-04T07:40:16.504Z,697.00
2023-03-04T07:45:16.160Z,1312.00
2023-03-04T07:50:18.049Z,383.00
2023-03-04T07:55:17.780Z,1216.00
2023-03-04T08:00:18.456Z,1451.00
2023-03-04T08:05:19.124Z,1742.00
2023-03-04T08:10:19.873Z,1422.00
2023-03-04T08:15:21.017Z,1277.00
2023-03-04T08:20:21.162Z,1159.00
2023-03-04T08:25:21.843Z,1002.00
2023-03-04T08:30:22.515Z,1069.00
2023-03-04T08:35:23.223Z,969.00
2023-03-04T08:40:23.850Z,1020.00
2023-03-04T08:45:24.531Z,1141.00
2023-03-04T08:50:25.196Z,1649.00
2023-03-04T08:55:25.913Z,1788.00
2023-03-04T09:00:26.542Z,1563.00
2023-03-04T09:05:27.225Z,1688.00
2023-03-04T09:10:27.883Z,1719.00
2023-03-04T09:15:28.581Z,1998.00
2023-03-04T09:20:30.156Z,1961.00
2023-03-04T09:25:29.767Z,1912.00
2023-03-04T09:30:30.418Z,2403.00
2023-03-04T09:35:31.163Z,2328.00
2023-03-04T09:40:31.811Z,2513.00
2023-03-04T09:45:33.045Z,1775.00
2023-03-04T09:50:33.204Z,1518.00
2023-03-04T09:55:33.881Z,1176.00
2023-03-04T10:00:34.524Z,1347.00
2023-03-04T10:05:35.175Z,2115.00
2023-03-04T10:10:35.989Z,1690.00
2023-03-04T10:15:43.798Z,1130.00
2023-03-04T10:20:37.431Z,2626.00
2023-03-04T10:25:38.132Z,1598.00
2023-03-04T10:30:38.827Z,2834.00
2023-03-04T10:35:39.562Z,1901.00
2023-03-04T10:40:40.228Z,2777.00
2023-03-04T10:45:40.898Z,1814.00
2023-03-04T10:50:41.511Z,1713.00
2023-03-04T10:55:42.197Z,1562.00
2023-03-04T11:00:42.870Z,1853.00
2023-03-04T11:05:43.515Z,2105.00
2023-03-04T11:10:44.177Z,2351.00
2023-03-04T11:15:44.849Z,2948.00
2023-03-04T11:20:45.484Z,3147.00
2023-03-04T11:25:46.147Z,2231.00
2023-03-04T11:30:46.841Z,1761.00
2023-03-04T11:35:47.538Z,3026.00
2023-03-04T11:40:48.231Z,1582.00
2023-03-04T11:45:48.982Z,2301.00
2023-03-04T11:50:49.608Z,3287.00
2023-03-04T11:55:50.275Z,2612.00
2023-03-04T12:00:50.959Z,2286.00
2023-03-04T12:05:51.676Z,1714.00
2023-03-04T12:10:52.350Z,2121.00
2023-03-04T12:15:53.049Z,2891.00
2023-03-04T12:20:53.692Z,3274.00
2023-03-04T12:25:54.579Z,3013.00
2023-03-04T12:30:55.310Z,2618.00
2023-03-04T12:35:55.999Z,2151.00
2023-03-04T12:40:56.630Z,2383.00
2023-03-04T12:45:57.309Z,1920.00
2023-03-04T12:50:57.949Z,2595.00
2023-03-04T12:55:58.630Z,2320.00
2023-03-04T13:00:59.321Z,2539.00
2023-03-04T13:05:59.962Z,2495.00
2023-03-04T13:11:00.635Z,1851.00
2023-03-04T13:16:01.333Z,2461.00
2023-03-04T13:21:01.991Z,2341.00
2023-03-04T13:26:02.622Z,2372.00
2023-03-04T13:31:03.381Z,1984.00
2023-03-04T13:36:04.119Z,1232.00
2023-03-04T13:41:04.793Z,2225.00
2023-03-04T13:46:05.419Z,1798.00
2023-03-04T13:51:06.111Z,1363.00
2023-03-04T13:56:06.809Z,961.00
2023-03-04T14:01:07.513Z,1801.00
2023-03-04T14:06:08.167Z,1931.00
2023-03-04T14:11:08.832Z,1699.00
2023-03-04T14:16:09.538Z,1502.00
2023-03-04T14:21:10.163Z,1292.00
2023-03-04T14:26:10.827Z,988.00
2023-03-04T14:31:11.508Z,955.00
2023-03-04T14:36:12.197Z,767.00
2023-03-04T14:41:12.845Z,450.00
2023-03-04T14:46:13.645Z,721.00
2023-03-04T14:51:14.338Z,1043.00
2023-03-04T14:56:15.020Z,894.00
2023-03-04T15:01:15.701Z,907.00
2023-03-04T15:06:16.322Z,666.00
2023-03-04T15:11:17.002Z,1364.00
2023-03-04T15:16:17.762Z,1161.00
2023-03-04T15:21:18.411Z,1418.00
2023-03-04T15:26:19.097Z,1329.00
2023-03-04T15:31:19.766Z,1207.00
2023-03-04T15:36:20.419Z,1312.00
2023-03-04T15:41:21.153Z,1261.00
2023-03-04T15:46:21.878Z,1230.00
2023-03-04T15:51:22.531Z,1138.00
2023-03-04T15:56:23.173Z,909.00
2023-03-04T16:01:23.885Z,750.00
2023-03-04T16:06:24.548Z,616.00
2023-03-04T16:11:25.201Z,479.00
2023-03-04T16:16:32.891Z,375.00
2023-03-04T16:21:26.534Z,285.00
2023-03-04T16:26:27.205Z,197.00
2023-03-04T16:31:27.938Z,153.00
2023-03-04T16:36:28.616Z,131.00
2023-03-04T16:41:29.270Z,90.00
2023-03-04T16:46:30.122Z,60.00
2023-03-04T16:51:30.842Z,47.00
2023-03-04T16:56:31.487Z,30.00
2023-03-04T17:01:32.256Z,17.00
2023-03-04T17:06:32.880Z,8.00
2023-03-04T17:11:33.566Z,7.00
2023-03-04T17:16:34.225Z,2.00
2023-03-04T17:21:34.912Z,1.00
2023-03-04T17:26:35.639Z,0.00
2023-03-04T17:31:36.439Z,0.00
2023-03-04T17:36:37.116Z,0.00
2023-03-04T17:41:37.837Z,0.00
2023-03-04T17:46:38.619Z,0.00
2023-03-04T17:51:39.296Z,0.00
2023-03-04T17:56:40.028Z,0.00
2023-03-04T18:01:40.835Z,0.00
2023-03-04T18:06:41.554Z,0.00
2023-03-04T18:11:42.261Z,0.00
2023-03-04T18:16:43.040Z,0.00
2023-03-04T18:21:43.728Z,0.00
2023-03-04T18:26:44.474Z,0.00
2023-03-04T18:31:45.290Z,0.00
2023-03-04T18:36:46.149Z,0.00
2023-03-04T18:41:46.865Z,0.00
2023-03-04T18:46:47.552Z,0.00
2023-03-04T18:51:48.268Z,0.00
2023-03-04T18:56:48.997Z,0.00
2023-03-04T19:01:49.867Z,0.00
2023-03-04T19:06:50.561Z,0.00
2023-03-04T19:11:51.294Z,0.00
2023-03-04T19:16:52.129Z,0.00
2023-03-04T19:21:52.833Z,0.00
2023-03-04T19:26:53.581Z,0.00
2023-03-04T19:31:54.331Z,0.00
2023-03-04T19:36:55.043Z,0.00
2023-03-04T19:41:55.775Z,0.00
2023-03-04T19:46:56.506Z,0.00
2023-03-04T19:51:57.192Z,0.00
2023-03-04T19:56:57.925Z,0.00
2023-03-04T20:01:58.654Z,0.00
2023-03-04T20:06:59.396Z,0.00
2023-03-04T20:12:00.095Z,0.00
2023-03-04T20:17:01.036Z,0.00
2023-03-04T20:22:01.344Z,0.00
2023-03-04T20:27:02.120Z,0.00
2023-03-04T20:32:02.867Z,0.00
2023-03-04T20:37:03.566Z,0.00
2023-03-04T20:42:04.267Z,0.00
2023-03-04T20:47:04.989Z,0.00
2023-03-04T20:52:05.725Z,0.00
2023-03-04T20:57:06.471Z,0.00
2023-03-04T21:02:07.165Z,0.00
2023-03-04T21:07:07.887Z,0.00
2023-03-04T21:12:08.633Z,0.00
2023-03-04T21:17:09.324Z,0.00
2023-03-04T21:22:10.049Z,0.00
2023-03-04T21:27:10.780Z,0.00
2023-03-04T21:32:23.251Z,0.00
2023-03-04T21:37:13.101Z,0.00
2023-03-04T21:42:12.816Z,0.00
2023-03-04T21:47:13.606Z,0.00
2023-03-04T21:52:14.292Z,0.00
2023-03-04T21:57:15.092Z,0.00
2023-03-04T22:02:15.927Z,0.00
2023-03-04T22:07:16.648Z,0.00
2023-03-04T22:12:19.494Z,0.00
2023-03-04T22:17:17.973Z,0.00
2023-03-04T22:22:18.736Z,0.00
2023-03-04T22:27:19.433Z,0.00
2023-03-04T22:32:20.196Z,0.00
2023-03-04T22:37:20.883Z,0.00
2023-03-04T22:42:21.637Z,0.00
2023-03-04T22:47:22.341Z,0.00
2023-03-04T22:52:31.068Z,0.00
2023-03-04T22:57:23.765Z,0.00
2023-03-04T23:02:24.515Z,0.00
2023-03-04T23:07:25.190Z,0.00
2023-03-04T23:12:25.908Z,0.00
2023-03-04T23:17:26.657Z,0.00
2023-03-04T23:22:27.359Z,0.00
2023-03-04T23:27:28.071Z,0.00
2023-03-04T23:32:28.848Z,0.00
2023-03-04T23:37:29.523Z,0.00
2023-03-04T23:42:30.252Z,0.00
2023-03-04T23:47:30.980Z,0.00
2023-03-04T23:52:31.670Z,0.00
2023-03-04T23:57:32.422Z,0.00
